TFM - Tactical Decision Aid
ID: Runway Winds: CIG/VIS Threshold:

KEWR - Newark Intl, NJ, US

Updated at: 1810 UTC 19 Aug 2019
Latest TAF at: 1721 UTC 19 Aug 2019

TAF Board

Time1751Z 19/19Z 19/20Z 19/21Z 19/22Z 19/23Z 20/00Z 20/01Z 20/02Z 20/03Z 20/04Z 20/05Z 20/06Z 20/07Z>>
Type OBS PRVL PRVL
  [TEMP]  
PRVL
  [TEMP]  
PRVL
  [TEMP]  
PRVL
  [TEMP]  
PRVL PRVL PRVL PRVL PRVL PRVL PRVL PRVL
VIS 10 >6 >6
  [2]  
>6
  [2]  
>6
  [2]  
>6
  [2]  
>6 >6 >6 >6 >6 >6 >6 >6
CIG -- -- --
  [40]  
--
  [40]  
--
  [40]  
--
  [40]  
-- -- -- -- -- -- -- --
Cover SCT SCT SCT
  [BKN]  
SCT
  [BKN]  
SCT
  [BKN]  
SCT
  [BKN]  
SCT SCT SCT SCT SCT FEW FEW FEW
FltCat VFR VFR VFR
  [IFR]  
VFR
  [IFR]  
VFR
  [IFR]  
VFR
  [IFR]  
VFR VFR VFR VFR VFR VFR VFR VFR
WX -- -- VCTS
  [TSRA]  
VCTS
  [TSRA]  
VCTS
  [TSRA]  
VCTS
  [TSRA]  
-- -- -- -- -- -- -- --
WDir 250 240 240
[270]
240
[270]
240
[270]
240
[270]
250 250 250 250 250 320 320 360
WSpd 9 9 9
  [20]  
9
  [20]  
9
  [20]  
9
  [20]  
6 6 6 6 6 4 4 4
WGst -- -- --
  [35]  
--
  [35]  
--
  [35]  
--
  [35]  
-- -- -- -- -- -- -- --

TDA Impact Legend

  None Marginal Slight Moderate High
Visibility (sm) >5 3≤X≤5 1≤X<3 0.5≤X<1 <0.5
Ceiling (100 ft) >30 10≤X≤30 4≤X<10 2≤X<4 <2
Wind Speed (kt) <15 15≤X<25 25≤X<30 ≥30
Wind Gust (kt) <15 15≤X<25 25≤X<35 ≥35
Weather No Wx Reported VCTS -TS,-FZRA TS,FZRA +TS,+FZRA
TAF
KEWR 191721Z 1918/2024 24009KT P6SM SCT040
  FM192000 24009KT P6SM VCTS SCT040CB SCT100 SCT250
  TEMPO 1920/1924 27020G35KT 2SM TSRA BKN040CB
  FM200000 25006KT P6SM SCT040
  FM200500 32004KT P6SM FEW040
  FM200700 36004KT P6SM FEW040
  FM201000 02006KT P6SM FEW040
  FM202000 VRB05KT P6SM SCT040
  FM202100 15006KT P6SM SCT040


METAR
KEWR 191751Z 25009KT 10SM FEW040 SCT250 33/22 A2996 RMK AO2 SLP145 T03330217 10333 20250 56008
KEWR 191651Z 20012KT 10SM FEW035 SCT250 31/22 A2997 RMK AO2 SLP148 T03110222
KEWR 191551Z 25005G14KT 10SM FEW035 FEW180 SCT250 31/22 A2997 RMK AO2 SLP149 T03110217
KEWR 191451Z 26010KT 10SM FEW022 FEW090 SCT250 29/22 A2998 RMK AO2 SLP153 T02940222 55002

Radar Display
Forecast Discussion